Time;durP1;ratioP1;P1;durP2;ratioP2;P2;SDS_P1;SDS_P2;PMS_P1;PMS_P2;Temp;Humidity;BMP_temperature;BMP_pressure;BME280_temperature;BME280_humidity;BME280_pressure;Samples;Min_cycle;Max_cycle;Signal;HPM_P1;HPM_P2
2022/01/12 00:00:07;;;;;;;11.38;5.03;;;-5.30;99.90;;;-5.62;72.43;99136.97;173077;28;1004;-77
2022/01/12 00:00:14;;;;;;;10.69;4.97;;;-5.30;99.90;;;-5.55;72.65;99146.38;173078;28;1353;-76
2022/01/12 00:00:23;;;;;;;10.83;4.80;;;-5.30;99.90;;;-5.61;72.73;99151.81;174188;28;1373;-77
2022/01/12 00:00:32;;;;;;;10.57;4.70;;;-5.30;99.90;;;-5.63;72.55;99140.50;174440;28;1372;-77
2022/01/12 00:00:39;;;;;;;11.53;4.73;;;-5.30;99.90;;;-5.68;72.62;99132.78;173984;28;1325;-76
2022/01/12 00:00:45;;;;;;;12.53;4.57;;;-5.30;99.90;;;-5.76;72.79;99115.56;173786;28;1124;-76
2022/01/12 00:00:52;;;;;;;12.45;4.55;;;-5.30;99.90;;;-5.62;72.58;99139.59;172510;28;1227;-76
2022/01/12 00:00:58;;;;;;;12.60;4.70;;;-5.30;99.90;;;-5.60;72.93;99145.66;173056;28;1296;-76
2022/01/12 00:01:11;;;;;;;12.75;4.55;;;-5.30;99.90;;;-5.81;73.01;99107.84;174600;28;1464;-76
2022/01/12 00:01:18;;;;;;;11.41;4.61;;;-5.30;99.90;;;-5.73;72.99;99125.94;173918;28;1260;-77
2022/01/12 00:01:24;;;;;;;11.82;4.42;;;-5.30;99.90;;;-5.62;72.43;99137.84;173877;28;1358;-77
2022/01/12 00:01:30;;;;;;;12.30;4.35;;;-5.30;99.90;;;-5.66;72.71;99128.34;172872;28;1540;-77
2022/01/12 00:01:36;;;;;;;12.20;4.38;;;-5.30;99.90;;;-5.69;72.45;99132.81;173198;28;1374;-77
2022/01/12 00:01:43;;;;;;;12.82;4.40;;;-5.30;99.90;;;-5.64;72.44;99144.88;173247;28;1328;-76
2022/01/12 00:01:49;;;;;;;12.82;4.76;;;-5.30;99.90;;;-5.71;72.31;99132.88;173833;28;1152;-76
2022/01/12 00:01:56;;;;;;;12.43;5.00;;;-5.30;99.90;;;-5.66;72.65;99140.59;173833;28;1206;-76
2022/01/12 00:02:03;;;;;;;11.64;4.92;;;-5.30;99.90;;;-6.02;72.30;99075.31;173137;28;1326;-77
2022/01/12 00:02:09;;;;;;;11.20;5.00;;;-5.30;99.90;;;-5.67;72.51;99147.63;174533;28;1299;-77
2022/01/12 00:02:18;;;;;;;10.87;4.73;;;-5.30;99.90;;;-5.61;72.36;99149.19;174212;28;1580;-77
2022/01/12 00:02:23;;;;;;;10.57;4.70;;;-5.30;99.90;;;-5.65;72.31;99147.56;173156;28;1467;-76
2022/01/12 00:02:29;;;;;;;10.65;4.70;;;-5.30;99.90;;;-5.74;72.39;99125.09;172918;28;1431;-76
2022/01/12 00:02:36;;;;;;;11.05;5.05;;;-5.30;99.90;;;-5.72;72.41;99138.16;173854;28;1303;-76
2022/01/12 00:02:42;;;;;;;10.92;5.04;;;-5.30;99.90;;;-5.71;72.08;99134.66;174455;28;926;-77
2022/01/12 00:02:48;;;;;;;10.67;5.00;;;-5.30;99.90;;;-5.65;72.26;99139.72;172493;28;1455;-77
2022/01/12 00:02:54;;;;;;;11.12;5.00;;;-5.30;99.90;;;-5.81;71.98;99114.84;173821;28;1535;-77
2022/01/12 00:03:00;;;;;;;11.25;5.05;;;-5.30;99.90;;;-5.76;71.91;99120.81;173759;28;1439;-77
2022/01/12 00:03:07;;;;;;;10.05;4.65;;;-5.30;99.90;;;-5.66;72.06;99137.97;172644;28;966;-77
2022/01/12 00:03:13;;;;;;;9.62;4.52;;;-5.30;99.90;;;-5.77;72.13;99121.72;173798;28;1481;-76
2022/01/12 00:03:19;;;;;;;9.97;4.57;;;-5.30;99.90;;;-5.67;71.92;99138.88;174625;28;1289;-76
2022/01/12 00:03:25;;;;;;;9.88;4.82;;;-5.30;99.90;;;-5.70;72.20;99128.50;173760;28;1177;-76
2022/01/12 00:03:35;;;;;;;10.05;4.97;;;-5.30;99.90;;;-5.79;72.08;99118.25;173721;28;1536;-76
2022/01/12 00:03:44;;;;;;;11.19;5.20;;;-5.30;99.90;;;-5.72;72.05;99133.78;172398;28;1249;-77
2022/01/12 00:03:50;;;;;;;10.66;5.14;;;-5.30;99.90;;;-5.77;72.06;99111.22;172933;28;1175;-77
2022/01/12 00:03:56;;;;;;;9.63;4.50;;;-5.30;99.90;;;-5.76;72.34;99115.56;173192;28;1353;-77
2022/01/12 00:04:03;;;;;;;10.98;4.47;;;-5.30;99.90;;;-5.99;72.64;99078.72;173188;28;1543;-77
2022/01/12 00:04:11;;;;;;;12.77;4.30;;;-5.30;99.90;;;-5.85;72.24;99100.09;173236;28;1281;-77
2022/01/12 00:04:17;;;;;;;13.92;4.60;;;-5.30;99.90;;;-5.99;72.38;99074.34;173640;28;943;-77
2022/01/12 00:04:23;;;;;;;13.88;4.72;;;-5.30;99.90;;;-5.75;72.35;99119.91;173841;28;1396;-77
2022/01/12 00:04:29;;;;;;;15.50;4.90;;;-5.30;99.90;;;-6.02;72.61;99079.69;174028;28;1272;-77
2022/01/12 00:04:35;;;;;;;12.70;4.93;;;-5.30;99.90;;;-5.64;72.49;99137.00;175252;28;1165;-77
2022/01/12 00:04:41;;;;;;;12.82;5.25;;;-5.30;99.90;;;-5.69;72.55;99135.44;174456;28;1349;-77
2022/01/12 00:04:47;;;;;;;13.23;5.27;;;-5.30;99.90;;;-5.68;72.12;99132.78;173814;28;1278;-77
2022/01/12 00:04:53;;;;;;;13.85;5.25;;;-5.30;99.90;;;-5.83;72.42;99101.78;173239;28;985;-77
2022/01/12 00:04:59;;;;;;;11.85;5.18;;;-5.30;99.90;;;-5.62;72.05;99147.47;173151;28;1163;-77
2022/01/12 00:05:06;;;;;;;11.18;5.00;;;-5.30;99.90;;;-5.69;71.74;99135.44;173197;28;1184;-77
2022/01/12 00:05:12;;;;;;;9.83;4.37;;;-5.30;99.90;;;-5.63;72.31;99140.50;174302;28;1375;-76
2022/01/12 00:05:20;;;;;;;9.18;4.15;;;-5.30;99.90;;;-5.68;72.18;99137.16;174565;28;1438;-76
2022/01/12 00:05:26;;;;;;;8.67;4.20;;;-5.30;99.90;;;-5.67;72.30;99139.75;173955;28;1098;-77
2022/01/12 00:05:32;;;;;;;8.70;4.10;;;-5.40;99.90;;;-5.78;72.35;99117.38;173827;28;1287;-76
2022/01/12 00:05:38;;;;;;;9.63;4.17;;;-5.30;99.90;;;-5.79;72.26;99119.13;172916;28;1382;-76
2022/01/12 00:05:44;;;;;;;9.57;4.13;;;-5.40;99.90;;;-5.70;72.26;99139.00;173016;28;1554;-77
2022/01/12 00:05:50;;;;;;;9.83;4.23;;;-5.40;99.90;;;-5.73;72.02;99126.81;173287;28;1294;-77
2022/01/12 00:05:56;;;;;;;9.77;4.20;;;-5.40;99.90;;;-5.65;72.68;99137.91;172546;28;1055;-77
2022/01/12 00:06:04;;;;;;;10.50;4.40;;;-5.40;99.90;;;-5.65;72.49;99139.72;173806;28;1342;-77
2022/01/12 00:06:12;;;;;;;10.48;4.50;;;-5.40;99.90;;;-5.73;72.34;99123.31;172555;28;1041;-76
2022/01/12 00:06:18;;;;;;;10.23;4.63;;;-5.40;99.90;;;-5.82;72.06;99116.59;173410;28;1430;-77
2022/01/12 00:06:24;;;;;;;10.80;4.88;;;-5.40;99.90;;;-5.64;72.28;99144.03;174458;28;1408;-77
2022/01/12 00:06:30;;;;;;;11.13;4.97;;;-5.40;99.90;;;-5.78;72.74;99130.47;174390;28;1503;-77
2022/01/12 00:06:36;;;;;;;12.53;5.20;;;-5.40;99.90;;;-5.87;72.43;99109.81;172481;28;1351;-76
2022/01/12 00:06:42;;;;;;;12.90;5.30;;;-5.40;99.90;;;-6.08;72.37;99075.47;173198;28;1255;-77
2022/01/12 00:06:48;;;;;;;14.02;5.30;;;-5.40;99.90;;;-5.77;72.46;99126.97;174534;28;1341;-76
2022/01/12 00:06:54;;;;;;;15.17;5.27;;;-5.40;99.90;;;-5.73;72.57;99137.31;173060;28;1356;-76
2022/01/12 00:07:00;;;;;;;14.25;5.18;;;-5.40;99.90;;;-5.79;72.10;99126.13;173807;28;1359;-77
2022/01/12 00:07:06;;;;;;;12.68;4.90;;;-5.40;99.90;;;-5.84;72.48;99121.03;174398;28;1695;-77
2022/01/12 00:07:13;;;;;;;12.48;5.03;;;-5.40;99.90;;;-5.85;72.38;99121.94;174101;28;2103;-76
2022/01/12 00:07:19;;;;;;;10.62;4.46;;;-5.40;99.90;;;-5.76;72.50;99134.78;173796;28;1485;-76
2022/01/12 00:07:24;;;;;;;8.95;4.25;;;-5.40;99.90;;;-5.74;72.65;99147.84;171808;28;1302;-76
2022/01/12 00:07:30;;;;;;;9.88;4.20;;;-5.40;99.90;;;-5.84;72.43;99123.66;173807;28;1309;-77
2022/01/12 00:07:36;;;;;;;10.77;4.40;;;-5.40;99.90;;;-5.70;72.79;99154.72;174280;28;1365;-77
2022/01/12 00:07:42;;;;;;;11.27;4.35;;;-5.40;99.90;;;-5.73;72.42;99146.94;173174;28;1228;-77
2022/01/12 00:07:50;;;;;;;11.95;4.63;;;-5.40;99.90;;;-5.81;72.15;99131.44;173622;28;1357;-77
2022/01/12 00:07:56;;;;;;;13.05;4.80;;;-5.40;99.90;;;-5.80;72.73;99127.88;173861;28;1536;-77
2022/01/12 00:08:03;;;;;;;12.43;4.82;;;-5.40;99.90;;;-5.77;72.54;99137.44;173821;28;927;-77
2022/01/12 00:08:10;;;;;;;12.72;4.90;;;-5.40;99.90;;;-5.77;72.46;99138.31;172730;28;1415;-77
2022/01/12 00:08:16;;;;;;;13.10;4.97;;;-5.50;99.90;;;-5.75;71.98;99146.13;173175;28;937;-77
2022/01/12 00:08:21;;;;;;;13.48;5.05;;;-5.40;99.90;;;-5.73;72.09;99146.94;173131;28;1177;-77
2022/01/12 00:08:29;;;;;;;12.50;4.95;;;-5.40;99.90;;;-5.82;72.47;99134.97;172503;28;1334;-77
2022/01/12 00:08:35;;;;;;;12.20;4.80;;;-5.50;99.90;;;-5.79;72.34;99141.88;173805;28;1417;-77
2022/01/12 00:08:41;;;;;;;11.95;4.68;;;-5.50;99.90;;;-5.81;72.69;99135.81;173855;28;1059;-77
2022/01/12 00:08:48;;;;;;;10.90;4.54;;;-5.50;99.90;;;-5.80;72.51;99137.56;174587;28;1188;-77
2022/01/12 00:08:55;;;;;;;11.07;4.53;;;-5.50;99.90;;;-5.80;72.54;99143.63;173084;28;1559;-77
2022/01/12 00:09:06;;;;;;;11.52;4.60;;;-5.50;99.90;;;-5.78;72.24;99147.06;173099;28;1386;-77
2022/01/12 00:09:13;;;;;;;11.71;4.78;;;-5.50;99.90;;;-5.75;72.36;99143.53;172893;28;1428;-77
2022/01/12 00:09:19;;;;;;;11.26;4.90;;;-5.50;99.90;;;-5.91;72.18;99126.56;173078;28;1640;-77
2022/01/12 00:09:26;;;;;;;10.90;4.80;;;-5.50;99.90;;;-6.10;72.36;99086.91;172428;28;1283;-77
2022/01/12 00:09:32;;;;;;;10.48;4.85;;;-5.50;99.90;;;-5.82;72.28;99134.97;173410;28;1226;-77
2022/01/12 00:09:37;;;;;;;9.73;4.80;;;-5.50;99.90;;;-5.90;72.62;99128.25;173136;28;1024;-77
2022/01/12 00:09:43;;;;;;;9.73;4.82;;;-5.40;99.90;;;-5.77;72.10;99145.31;173161;28;1369;-77
2022/01/12 00:09:49;;;;;;;9.73;4.88;;;-5.50;99.90;;;-5.92;72.17;99122.22;173726;28;1417;-77
2022/01/12 00:09:55;;;;;;;9.18;4.68;;;-5.50;99.90;;;-5.79;72.35;99139.25;172464;28;1536;-77
2022/01/12 00:10:02;;;;;;;9.52;4.63;;;-5.50;99.90;;;-5.89;72.51;99122.09;173136;28;954;-77
2022/01/12 00:10:09;;;;;;;9.73;4.60;;;-5.50;99.90;;;-5.95;72.33;99119.66;174531;28;1455;-77
2022/01/12 00:10:16;;;;;;;9.82;4.50;;;-5.50;99.90;;;-5.75;72.92;99151.38;175702;28;1384;-77
2022/01/12 00:10:22;;;;;;;10.40;4.30;;;-5.50;99.90;;;-5.79;72.38;99149.72;175827;28;1458;-77
2022/01/12 00:10:28;;;;;;;9.88;4.25;;;-5.50;99.90;;;-5.81;72.50;99147.19;173092;28;1305;-77
2022/01/12 00:10:36;;;;;;;9.63;4.25;;;-5.50;99.90;;;-5.85;72.33;99139.41;173502;28;1465;-77
2022/01/12 00:10:43;;;;;;;9.68;4.15;;;-5.50;99.90;;;-5.80;72.23;99150.66;173665;28;1564;-77
2022/01/12 00:10:49;;;;;;;12.00;4.47;;;-5.50;99.90;;;-5.89;72.23;99133.44;174538;28;1397;-77
2022/01/12 00:10:56;;;;;;;11.88;4.50;;;-5.50;99.90;;;-6.05;72.55;99106.81;172754;28;1485;-77
2022/01/12 00:11:05;;;;;;;12.93;4.50;;;-5.50;99.90;;;-5.79;72.39;99147.13;173846;28;1441;-77
2022/01/12 00:11:11;;;;;;;13.33;4.43;;;-5.50;99.90;;;-5.87;72.78;99144.78;174105;28;1266;-77
2022/01/12 00:11:20;;;;;;;11.70;4.47;;;-5.50;99.90;;;-5.95;72.86;99123.13;173214;28;957;-77
2022/01/12 00:11:26;;;;;;;10.87;4.54;;;-5.50;99.90;;;-6.07;72.92;99103.41;172658;28;1322;-77
2022/01/12 00:11:36;;;;;;;9.88;4.55;;;-5.50;99.90;;;-5.77;72.61;99159.28;173793;28;1302;-77
2022/01/12 00:11:42;;;;;;;9.77;4.63;;;-5.50;99.90;;;-5.76;72.48;99157.53;174600;28;1562;-77
2022/01/12 00:11:49;;;;;;;10.00;4.53;;;-5.50;99.90;;;-5.89;73.01;99137.84;173160;28;1492;-77
2022/01/12 00:11:55;;;;;;;9.88;4.44;;;-5.50;99.90;;;-5.78;73.07;99146.22;173150;28;1334;-77
2022/01/12 00:12:00;;;;;;;9.88;4.43;;;-5.50;99.90;;;-5.77;73.00;99159.28;173116;28;1219;-77
2022/01/12 00:12:08;;;;;;;9.32;4.45;;;-5.50;99.90;;;-5.82;73.27;99145.47;173141;28;1231;-77
2022/01/12 00:12:14;;;;;;;10.23;4.60;;;-5.50;99.90;;;-5.80;73.17;99154.13;174461;28;1392;-77
2022/01/12 00:12:20;;;;;;;10.03;4.70;;;-5.50;99.90;;;-5.81;73.44;99141.06;173876;28;1453;-77
2022/01/12 00:12:26;;;;;;;10.10;4.68;;;-5.50;99.90;;;-5.78;73.55;99152.31;172596;28;1001;-77
2022/01/12 00:12:32;;;;;;;11.30;4.80;;;-5.50;99.90;;;-5.86;73.24;99135.09;173751;28;1430;-77
2022/01/12 00:12:38;;;;;;;12.50;4.93;;;-5.50;99.90;;;-6.16;73.41;99087.94;173896;28;1298;-77
2022/01/12 00:12:44;;;;;;;12.02;4.63;;;-5.50;99.90;;;-5.82;73.05;99147.22;172456;28;1277;-77
2022/01/12 00:12:50;;;;;;;12.75;4.68;;;-5.50;99.90;;;-5.81;73.40;99146.31;173221;28;991;-77
2022/01/12 00:12:56;;;;;;;13.32;4.95;;;-5.50;99.90;;;-6.01;73.53;99113.69;173571;28;1240;-77
2022/01/12 00:13:02;;;;;;;12.38;4.90;;;-5.50;99.90;;;-5.79;73.17;99147.97;173851;28;1336;-77
2022/01/12 00:13:07;;;;;;;12.15;4.70;;;-5.50;99.90;;;-5.88;73.31;99135.19;173793;28;1385;-77
2022/01/12 00:13:15;;;;;;;12.30;4.72;;;-5.50;99.90;;;-5.87;73.53;99133.41;174394;28;1389;-77
2022/01/12 00:13:21;;;;;;;11.66;4.62;;;-5.50;99.90;;;-5.77;73.40;99158.44;174915;28;1453;-77
2022/01/12 00:13:27;;;;;;;11.15;4.30;;;-5.50;99.90;;;-5.86;73.06;99137.72;173888;28;1210;-77
2022/01/12 00:13:34;;;;;;;11.20;4.10;;;-5.50;99.90;;;-5.90;73.21;99138.72;174277;28;1635;-77
2022/01/12 00:13:40;;;;;;;10.82;4.22;;;-5.50;99.90;;;-5.87;72.83;99142.16;175074;28;1388;-77
2022/01/12 00:13:47;;;;;;;11.27;4.13;;;-5.50;99.90;;;-5.84;73.18;99152.50;173970;28;1215;-77
2022/01/12 00:13:53;;;;;;;11.83;4.30;;;-5.50;99.90;;;-5.88;72.95;99139.56;173871;28;1083;-77
2022/01/12 00:13:59;;;;;;;12.30;4.47;;;-5.60;99.90;;;-5.81;73.32;99155.06;174464;28;1979;-77
2022/01/12 00:14:05;;;;;;;12.55;4.53;;;-5.50;99.90;;;-5.92;73.23;99128.31;174466;28;1386;-77
2022/01/12 00:14:11;;;;;;;13.94;4.70;;;-5.50;99.90;;;-5.88;73.62;99139.56;173826;28;1407;-77
2022/01/12 00:14:17;;;;;;;12.98;4.43;;;-5.50;99.90;;;-5.85;73.39;99140.28;173191;28;1259;-77
2022/01/12 00:14:23;;;;;;;12.73;4.53;;;-5.50;99.90;;;-5.78;73.36;99152.31;172455;28;1184;-77
2022/01/12 00:14:29;;;;;;;13.45;4.75;;;-5.50;99.90;;;-5.88;73.33;99134.31;172429;28;1386;-77
2022/01/12 00:14:35;;;;;;;13.00;4.72;;;-5.50;99.90;;;-5.79;73.87;99149.72;172876;28;1020;-77
2022/01/12 00:14:41;;;;;;;11.10;4.55;;;-5.50;99.90;;;-5.76;73.29;99154.91;172471;28;1196;-77
2022/01/12 00:14:47;;;;;;;11.00;4.60;;;-5.50;99.90;;;-5.80;73.43;99151.50;173895;28;1223;-77
2022/01/12 00:14:53;;;;;;;11.65;4.53;;;-5.50;99.90;;;-5.81;73.74;99148.94;173739;28;1194;-77
2022/01/12 00:14:59;;;;;;;10.28;4.18;;;-5.50;99.90;;;-5.80;73.64;99148.03;173800;28;1350;-77
2022/01/12 00:15:06;;;;;;;9.93;4.18;;;-5.50;99.90;;;-5.78;73.04;99146.22;173116;28;1360;-77
2022/01/12 00:15:15;;;;;;;9.98;4.25;;;-5.60;99.90;;;-5.87;73.38;99133.41;173607;28;1322;-77
2022/01/12 00:15:21;;;;;;;8.97;4.36;;;-5.60;99.90;;;-5.90;73.34;99126.47;174298;28;1186;-77
2022/01/12 00:15:27;;;;;;;8.50;4.30;;;-5.50;99.90;;;-5.90;73.45;99128.25;173170;28;1145;-77
2022/01/12 00:15:33;;;;;;;8.25;4.28;;;-5.50;99.90;;;-5.96;73.21;99126.69;173670;28;1353;-77
2022/01/12 00:15:39;;;;;;;8.63;4.25;;;-5.60;99.90;;;-5.78;72.99;99157.56;173740;28;1409;-77
2022/01/12 00:15:45;;;;;;;8.95;4.30;;;-5.60;99.90;;;-5.81;72.82;99154.19;173891;28;863;-77
2022/01/12 00:15:52;;;;;;;9.60;4.22;;;-5.60;99.90;;;-6.05;72.70;99105.97;173637;28;1019;-77
2022/01/12 00:15:58;;;;;;;10.02;4.35;;;-5.60;99.90;;;-5.91;72.67;99134.41;173190;28;1393;-77
2022/01/12 00:16:05;;;;;;;10.53;4.60;;;-5.60;99.90;;;-5.88;72.66;99144.81;173796;28;1247;-77
2022/01/12 00:16:11;;;;;;;11.36;4.66;;;-5.60;99.90;;;-5.98;72.71;99114.53;173189;28;1049;-77
2022/01/12 00:16:18;;;;;;;13.37;4.73;;;-5.60;99.90;;;-5.89;72.47;99138.69;174539;28;1430;-77
2022/01/12 00:16:24;;;;;;;13.56;4.72;;;-5.60;99.90;;;-5.80;72.96;99150.66;173912;28;970;-77
2022/01/12 00:16:31;;;;;;;13.82;4.63;;;-5.60;99.90;;;-5.78;72.67;99151.47;173093;28;1289;-77
2022/01/12 00:16:39;;;;;;;12.84;4.52;;;-5.60;99.90;;;-5.85;72.74;99147.28;173034;28;1333;-77
2022/01/12 00:16:48;;;;;;;12.02;4.56;;;-5.60;99.90;;;-5.88;72.82;99137.81;175000;28;1518;-77
2022/01/12 00:16:59;;;;;;;9.87;4.43;;;-5.60;99.90;;;-5.77;72.40;99158.44;173297;28;1437;-77
2022/01/12 00:17:05;;;;;;;10.52;4.57;;;-5.60;99.90;;;-5.81;72.69;99157.66;172470;28;1523;-77
2022/01/12 00:17:11;;;;;;;11.45;4.63;;;-5.60;99.90;;;-5.88;72.65;99144.81;173634;28;1306;-77
2022/01/12 00:17:17;;;;;;;12.10;4.63;;;-5.60;99.90;;;-5.93;72.81;99133.59;174598;28;1222;-77
2022/01/12 00:17:22;;;;;;;13.18;4.82;;;-5.60;99.90;;;-5.89;72.67;99140.47;174202;28;1322;-77
2022/01/12 00:17:28;;;;;;;12.88;4.57;;;-5.60;99.90;;;-5.89;72.73;99140.47;173287;28;965;-77
2022/01/12 00:17:34;;;;;;;12.27;4.47;;;-5.60;99.90;;;-5.85;72.86;99137.66;174186;28;1188;-77
2022/01/12 00:17:41;;;;;;;11.45;4.35;;;-5.60;99.90;;;-6.00;72.76;99122.41;174364;28;1296;-77
2022/01/12 00:17:47;;;;;;;11.20;4.20;;;-5.60;99.90;;;-5.87;72.56;99139.53;174908;28;1487;-77
2022/01/12 00:17:53;;;;;;;10.68;4.10;;;-5.60;99.90;;;-6.21;72.79;99091.59;173730;28;1211;-77
2022/01/12 00:17:59;;;;;;;10.55;4.22;;;-5.60;99.90;;;-5.89;72.67;99148.31;173177;28;1127;-77
2022/01/12 00:18:05;;;;;;;11.43;4.30;;;-5.60;99.90;;;-5.92;72.21;99130.06;173913;28;803;-77
2022/01/12 00:18:12;;;;;;;12.02;4.45;;;-5.60;99.90;;;-5.97;72.14;99131.97;173883;28;959;-77
2022/01/12 00:18:20;;;;;;;12.60;4.67;;;-5.60;99.90;;;-6.01;72.43;99125.97;174337;28;1394;-77
2022/01/12 00:18:26;;;;;;;11.77;4.53;;;-5.60;99.90;;;-5.88;72.11;99150.91;174289;28;1440;-77
2022/01/12 00:18:33;;;;;;;12.32;4.53;;;-5.60;99.90;;;-5.94;72.16;99135.34;173111;28;1291;-77
2022/01/12 00:18:39;;;;;;;12.03;4.43;;;-5.60;99.90;;;-5.91;72.14;99139.66;173763;28;1503;-77
2022/01/12 00:18:45;;;;;;;12.05;4.38;;;-5.60;99.90;;;-5.90;72.46;99133.50;173878;28;1245;-77
2022/01/12 00:18:52;;;;;;;12.83;4.57;;;-5.60;99.90;;;-5.87;72.45;99136.03;174552;28;1288;-77
2022/01/12 00:18:58;;;;;;;12.56;4.72;;;-5.60;99.90;;;-5.86;72.76;99145.59;174821;28;1416;-77
2022/01/12 00:19:04;;;;;;;11.85;4.78;;;-5.60;99.90;;;-5.95;72.62;99127.53;173854;28;1306;-77
2022/01/12 00:19:09;;;;;;;11.05;4.75;;;-5.60;99.90;;;-5.84;72.62;99147.25;173005;28;1235;-77
2022/01/12 00:19:15;;;;;;;10.77;4.75;;;-5.60;99.90;;;-5.85;72.41;99142.03;174567;28;1322;-77
2022/01/12 00:19:22;;;;;;;10.05;4.63;;;-5.60;99.90;;;-5.87;72.33;99136.03;173171;28;1469;-77
2022/01/12 00:19:29;;;;;;;9.33;4.60;;;-5.50;99.90;;;-5.92;72.30;99122.22;173886;28;1290;-77
2022/01/12 00:19:35;;;;;;;9.06;4.60;;;-5.60;99.90;;;-5.92;72.25;99130.06;173793;28;1530;-77
2022/01/12 00:19:41;;;;;;;10.00;4.60;;;-5.50;99.90;;;-5.84;72.20;99146.38;173072;28;1325;-77
2022/01/12 00:19:47;;;;;;;10.18;4.57;;;-5.50;99.90;;;-5.81;72.35;99148.94;172982;28;1486;-77
2022/01/12 00:19:53;;;;;;;10.77;4.68;;;-5.60;99.90;;;-5.99;72.36;99120.66;172967;28;1335;-77
2022/01/12 00:19:59;;;;;;;11.20;4.72;;;-5.60;99.90;;;-5.96;72.20;99139.81;173209;28;951;-77
2022/01/12 00:20:05;;;;;;;12.57;4.88;;;-5.60;99.90;;;-5.88;72.07;99152.66;173055;28;1168;-77
2022/01/12 00:20:12;;;;;;;11.20;4.77;;;-5.60;99.90;;;-5.82;72.17;99155.09;173878;28;1386;-77
2022/01/12 00:20:18;;;;;;;11.43;4.70;;;-5.60;99.90;;;-5.85;72.43;99150.78;172962;28;1283;-76
2022/01/12 00:20:24;;;;;;;11.97;4.97;;;-5.60;99.90;;;-5.81;72.46;99162.06;173770;28;1419;-77
2022/01/12 00:20:30;;;;;;;12.25;5.18;;;-5.60;99.90;;;-5.90;72.18;99141.34;176583;27;1266;-77
2022/01/12 00:20:36;;;;;;;12.00;5.28;;;-5.60;99.90;;;-5.88;72.50;99144.81;174654;28;1258;-77
2022/01/12 00:20:42;;;;;;;13.23;5.50;;;-5.60;99.90;;;-5.85;72.55;99155.16;174025;28;1428;-77
2022/01/12 00:20:50;;;;;;;13.50;5.60;;;-5.60;99.90;;;-5.97;72.25;99131.97;173833;28;1437;-77
2022/01/12 00:20:56;;;;;;;13.70;5.47;;;-5.60;99.90;;;-5.96;72.39;99134.56;172535;28;1291;-77
2022/01/12 00:21:03;;;;;;;14.05;5.30;;;-5.60;99.90;;;-5.91;72.41;99148.41;173761;28;1315;-77
2022/01/12 00:21:09;;;;;;;13.33;5.10;;;-5.60;99.90;;;-5.90;72.92;99146.59;172985;28;1443;-77
2022/01/12 00:21:16;;;;;;;13.52;5.15;;;-5.60;99.90;;;-5.87;72.71;99147.38;173669;28;1070;-77
2022/01/12 00:21:22;;;;;;;13.64;5.02;;;-5.60;99.90;;;-5.88;73.05;99147.44;174342;28;1328;-77
2022/01/12 00:21:28;;;;;;;14.13;5.07;;;-5.60;99.90;;;-5.89;72.78;99143.94;174520;28;1295;-77
2022/01/12 00:21:34;;;;;;;14.87;5.37;;;-5.60;99.90;;;-6.03;72.74;99125.16;172943;28;1533;-77
2022/01/12 00:21:40;;;;;;;15.07;5.60;;;-5.60;99.90;;;-6.02;72.84;99121.63;173218;28;1279;-77
2022/01/12 00:21:46;;;;;;;15.30;5.60;;;-5.60;99.90;;;-5.89;72.73;99148.31;173113;28;1479;-77
2022/01/12 00:21:52;;;;;;;14.25;5.60;;;-5.60;99.90;;;-5.86;72.89;99153.47;174449;28;1199;-77
2022/01/12 00:21:58;;;;;;;12.17;5.33;;;-5.60;99.90;;;-5.87;72.67;99151.78;173865;28;1278;-77
2022/01/12 00:22:04;;;;;;;11.35;5.00;;;-5.60;99.90;;;-6.01;72.26;99124.19;174128;28;1323;-77
2022/01/12 00:22:10;;;;;;;10.48;4.62;;;-5.60;99.90;;;-5.95;72.50;99151.97;173202;28;919;-77
2022/01/12 00:22:16;;;;;;;9.80;4.68;;;-5.60;99.90;;;-6.05;72.45;99125.19;174008;28;1540;-77
2022/01/12 00:22:22;;;;;;;11.47;5.03;;;-5.60;99.90;;;-5.96;72.70;99137.19;173803;28;1586;-77
2022/01/12 00:22:29;;;;;;;12.10;5.27;;;-5.60;99.90;;;-6.00;72.55;99132.91;173770;28;1384;-77
2022/01/12 00:22:37;;;;;;;11.98;5.38;;;-5.60;99.90;;;-5.98;72.62;99135.50;173918;28;1456;-77
2022/01/12 00:22:43;;;;;;;12.77;5.50;;;-5.60;99.90;;;-6.02;72.71;99135.59;174414;28;1402;-77
2022/01/12 00:22:51;;;;;;;12.83;5.53;;;-5.60;99.90;;;-6.04;72.87;99129.53;173735;28;1310;-77
2022/01/12 00:22:57;;;;;;;11.82;5.13;;;-5.60;99.90;;;-6.03;73.13;99125.16;174192;28;968;-77
2022/01/12 00:23:03;;;;;;;11.90;4.93;;;-5.60;99.90;;;-6.14;72.72;99112.34;175388;28;1298;-77
2022/01/12 00:23:09;;;;;;;12.10;5.03;;;-5.60;99.90;;;-5.99;72.72;99142.50;173758;28;1246;-77
2022/01/12 00:23:17;;;;;;;12.20;5.03;;;-5.60;99.90;;;-5.94;72.70;99151.09;173924;28;1549;-77
2022/01/12 00:23:24;;;;;;;12.43;5.10;;;-5.60;99.90;;;-6.05;72.88;99133.03;172722;28;1425;-77
2022/01/12 00:23:30;;;;;;;12.30;5.07;;;-5.70;99.90;;;-5.95;72.97;99145.88;172510;28;1416;-77
2022/01/12 00:23:38;;;;;;;12.04;5.10;;;-5.60;99.90;;;-5.99;72.82;99133.78;172984;28;1449;-77
2022/01/12 00:23:44;;;;;;;12.43;5.23;;;-5.70;99.90;;;-5.91;73.16;99150.16;173550;28;1493;-77
2022/01/12 00:23:50;;;;;;;12.93;5.40;;;-5.70;99.90;;;-6.10;73.29;99118.34;174883;28;1317;-77
2022/01/12 00:23:56;;;;;;;13.20;5.54;;;-5.70;99.90;;;-6.04;73.44;99129.53;174515;28;1571;-76
2022/01/12 00:24:02;;;;;;;13.60;5.53;;;-5.70;99.90;;;-5.95;72.93;99138.00;172763;28;1226;-77
2022/01/12 00:24:08;;;;;;;13.77;5.50;;;-5.70;99.90;;;-5.95;73.33;99143.25;173273;28;1390;-77
2022/01/12 00:24:14;;;;;;;14.20;5.40;;;-5.70;99.90;;;-6.07;72.92;99129.63;172577;28;1418;-77
2022/01/12 00:24:20;;;;;;;13.63;5.20;;;-5.70;99.90;;;-5.97;72.63;99142.47;173154;28;1231;-77
2022/01/12 00:24:38;;;;;;;13.50;5.13;;;-5.70;99.90;;;-5.99;72.68;99142.50;173655;28;1414;-77
2022/01/12 00:25:33;;;;;;;13.25;5.43;;;-5.70;99.90;;;-5.92;72.49;99144.03;174635;28;1040;-77
2022/01/12 00:26:25;;;;;;;12.00;5.06;;;-5.70;99.90;;;-5.95;72.82;99140.63;173133;28;1430;-78
2022/01/12 00:26:25;;;;;;;11.95;4.82;;;-5.70;99.90;;;-6.04;73.09;99126.03;171794;28;1230;-78
2022/01/12 00:33:04;;;;;;;14.00;5.20;;;-5.70;99.90;;;-6.00;72.17;99146.00;173232;28;807;-78
2022/01/12 00:33:14;;;;;;;12.57;5.63;;;-5.70;99.90;;;-6.03;73.69;99140.88;171751;28;1474;-77
2022/01/12 00:33:21;;;;;;;12.91;5.09;;;-5.70;99.90;;;-5.95;73.96;99144.13;170946;28;1434;-78
2022/01/12 00:33:27;;;;;;;13.62;5.02;;;-5.70;99.90;;;-5.99;73.84;99146.88;170355;29;1424;-78
2022/01/12 00:33:33;;;;;;;13.82;5.18;;;-5.70;99.90;;;-6.02;73.85;99132.09;170131;29;1284;-78
2022/01/12 00:33:39;;;;;;;13.52;5.25;;;-5.70;99.90;;;-6.00;74.09;99146.00;171108;28;1346;-78
2022/01/12 00:33:45;;;;;;;13.02;5.20;;;-5.70;99.90;;;-6.01;74.07;99137.28;171837;28;1300;-77
2022/01/12 00:33:52;;;;;;;12.73;5.50;;;-5.70;99.90;;;-5.99;74.54;99136.38;171776;28;1305;-77
2022/01/12 00:34:00;;;;;;;12.07;5.67;;;-5.70;99.90;;;-5.97;74.04;99145.94;170440;28;1372;-78
2022/01/12 00:34:07;;;;;;;12.70;5.67;;;-5.70;99.90;;;-5.98;73.97;99138.13;171691;28;1979;-78
2022/01/12 00:34:13;;;;;;;12.57;5.70;;;-5.70;99.90;;;-6.09;73.92;99120.06;170594;28;1276;-77
2022/01/12 00:34:19;;;;;;;12.73;5.70;;;-5.70;99.90;;;-5.95;74.07;99148.50;173846;28;1330;-77
2022/01/12 00:34:25;;;;;;;14.07;5.70;;;-5.70;99.90;;;-5.93;74.09;99146.72;174493;28;1416;-78
2022/01/12 00:34:32;;;;;;;14.27;5.78;;;-5.70;99.90;;;-6.03;74.12;99133.88;173169;28;1326;-77
2022/01/12 00:34:38;;;;;;;14.82;5.80;;;-5.70;99.90;;;-5.96;73.95;99138.94;173185;28;906;-77
2022/01/12 00:34:44;;;;;;;14.70;5.75;;;-5.70;99.90;;;-5.92;73.98;99145.81;173371;28;1211;-78
2022/01/12 00:34:50;;;;;;;14.32;5.65;;;-5.70;99.90;;;-6.03;73.85;99130.38;172977;28;1462;-78
2022/01/12 00:34:55;;;;;;;13.77;5.78;;;-5.70;99.90;;;-6.09;73.76;99120.06;173563;28;1355;-77
2022/01/12 00:35:01;;;;;;;14.10;5.65;;;-5.70;99.90;;;-6.05;74.01;99127.81;173134;28;1334;-78
2022/01/12 00:35:07;;;;;;;15.87;5.53;;;-5.70;99.90;;;-5.96;74.00;99141.56;173683;28;1420;-78
2022/01/12 00:35:13;;;;;;;15.60;5.53;;;-5.70;99.90;;;-6.01;73.77;99134.66;174458;28;1395;-77
2022/01/12 00:35:19;;;;;;;14.80;5.30;;;-5.70;99.90;;;-5.93;73.57;99146.72;174152;28;1250;-78
2022/01/12 00:35:25;;;;;;;13.63;4.80;;;-5.70;99.90;;;-6.05;73.31;99135.66;173947;28;1389;-77
2022/01/12 00:35:31;;;;;;;12.75;4.88;;;-5.70;99.90;;;-5.93;73.27;99151.94;173270;28;1227;-78
2022/01/12 00:35:43;;;;;;;11.55;4.93;;;-5.70;99.90;;;-6.02;72.96;99132.09;173093;28;1287;-77
2022/01/12 00:35:53;;;;;;;12.51;5.09;;;-5.70;99.90;;;-6.10;72.98;99127.06;172656;28;1384;-78
2022/01/12 00:35:59;;;;;;;13.70;5.47;;;-5.70;99.90;;;-6.04;72.46;99136.53;173392;28;1285;-77
2022/01/12 00:36:05;;;;;;;14.23;5.65;;;-5.70;99.90;;;-5.93;73.15;99151.94;173900;28;1464;-77